Capitol Logistics 915

Operating for DHL



EGNX
East Midlands Airport
Derby, GB
EHAM
Schiphol International Airport
Amsterdam, NL

Activity Log

Date Flight Route Aircraft Duration
02/18/2022 CPX915 DTY3N DTY P166 BANTO P155 SIVDA P137 REDFA REDF1A B738 1h 29m
10/22/2019 CPX941 Not Available B738 1h 04m
10/19/2019 CPX941 N0388F230 DTY3N DTY L608 ADMIS M183 REDFA REDF1A B738 1h 06m

Route Details

Aircraft Information
Group: European Fleet
Types: A30F,A31F,B738
Route Data
Demand: L
Distance: 225nm
Duration: 1h 14m
Recm'd Route: DTY3N DTY P166 BANTO P155 SIVDA P137 REDFA REDF1A
Origin Wx: EGNX 272220Z 31009KT CAVOK 09/06 Q1027
Dest. Wx: EHAM 272225Z 30008KT 9999 FEW030TCU 12/09 Q1022 NOSIG
Notes:

Financial History
Total Freight: 75,505lbs
Average Load: 25,168lbs/flt
Fuel Used: 19,624lbs
Avg. Fuel Used: 6,541lbs/flt
Fuel Expense: $12,068
Avg. Fuel Expense: $4,023
Avg. Fuel Cost: $0.65/lbs
Total Gross Income: $151,551
Pilot Pay: $537
Total Expenses: $20,596
Total Revenue: $118,345
Average Revenue: $50,517.07